createdAt,value
2019-01-24T00:00:23.042Z,70.05
2019-01-24T00:01:23.032Z,70.33
2019-01-24T00:02:23.020Z,70.57
2019-01-24T00:03:23.030Z,70.37
2019-01-24T00:04:22.998Z,70.68
2019-01-24T00:05:22.988Z,70.89
2019-01-24T00:06:22.982Z,70.57
2019-01-24T00:07:22.971Z,70.43
2019-01-24T00:08:22.996Z,70.68
2019-01-24T00:09:22.945Z,70.37
2019-01-24T00:10:22.933Z,69.18
2019-01-24T00:11:22.923Z,69.49
2019-01-24T00:12:22.912Z,69.74
2019-01-24T00:13:22.901Z,70.15
2019-01-24T00:14:22.923Z,70.47
2019-01-24T00:15:22.881Z,70.89
2019-01-24T00:16:22.877Z,70.15
2019-01-24T00:17:22.857Z,71.31
2019-01-24T00:18:22.877Z,71.31
2019-01-24T00:19:22.859Z,70.96
2019-01-24T00:20:22.830Z,70.33
2019-01-24T00:21:22.813Z,70.65
2019-01-24T00:22:22.802Z,70.47
2019-01-24T00:23:22.792Z,70.12
2019-01-24T00:24:22.802Z,69.84
2019-01-24T00:25:22.775Z,69.39
2019-01-24T00:26:22.759Z,70.15
2019-01-24T00:27:22.749Z,71.41
2019-01-24T00:28:22.743Z,71.51
2019-01-24T00:29:22.750Z,71.41
2019-01-24T00:30:22.722Z,70.26
2019-01-24T00:31:22.707Z,70.78
2019-01-24T00:32:22.701Z,70.78
2019-01-24T00:33:22.683Z,70.57
2019-01-24T00:34:23.381Z,70.47
2019-01-24T00:35:22.663Z,70.43
2019-01-24T00:36:22.650Z,71.62
2019-01-24T00:37:22.642Z,71.31
2019-01-24T00:38:22.630Z,71.10
2019-01-24T00:39:22.655Z,71.51
2019-01-24T00:40:22.606Z,71.51
2019-01-24T00:41:22.596Z,71.83
2019-01-24T00:42:22.586Z,71.41
2019-01-24T00:43:22.574Z,70.57
2019-01-24T00:44:22.565Z,70.26
2019-01-24T00:45:22.575Z,70.26
2019-01-24T00:46:22.542Z,71.10
2019-01-24T00:47:22.534Z,70.15
2019-01-24T00:48:22.519Z,69.84
2019-01-24T00:49:22.511Z,69.74
2019-01-24T00:50:22.525Z,70.57
2019-01-24T00:51:32.149Z,70.47
2019-01-24T00:52:22.478Z,70.68
2019-01-24T00:53:22.471Z,70.26
2019-01-24T00:54:22.454Z,70.33
2019-01-24T00:55:22.469Z,69.95
2019-01-24T00:56:22.433Z,71.10
2019-01-24T00:57:22.422Z,71.41
2019-01-24T00:58:22.411Z,71.41
2019-01-24T00:59:22.411Z,71.73
2019-01-24T01:00:22.412Z,71.97
2019-01-24T01:01:22.377Z,72.14
2019-01-24T01:02:22.368Z,71.10
2019-01-24T01:03:22.356Z,71.41
2019-01-24T01:04:22.345Z,70.57
2019-01-24T01:05:22.357Z,70.47
2019-01-24T01:06:22.323Z,70.47
2019-01-24T01:07:22.313Z,70.68
2019-01-24T01:08:22.301Z,70.37
2019-01-24T01:09:22.292Z,70.68
2019-01-24T01:10:22.302Z,70.26
2019-01-24T01:11:22.271Z,70.57
2019-01-24T01:12:22.262Z,70.33
2019-01-24T01:13:22.246Z,70.23
2019-01-24T01:14:22.240Z,70.65
2019-01-24T01:15:22.247Z,70.86
2019-01-24T01:16:22.215Z,70.43
2019-01-24T01:17:22.203Z,70.26
2019-01-24T01:18:22.211Z,70.33
2019-01-24T01:19:22.183Z,70.68
2019-01-24T01:20:22.191Z,71.28
2019-01-24T01:21:22.167Z,70.12
2019-01-24T01:22:22.153Z,70.78
2019-01-24T01:23:22.145Z,70.12
2019-01-24T01:24:22.130Z,70.05
2019-01-24T01:25:22.142Z,70.23
2019-01-24T01:26:22.108Z,70.33
2019-01-24T01:27:22.095Z,69.74
2019-01-24T01:28:22.085Z,70.37
2019-01-24T01:29:22.073Z,70.57
2019-01-24T01:30:22.086Z,70.15
2019-01-24T01:31:22.050Z,70.05
2019-01-24T01:32:22.040Z,69.95
2019-01-24T01:33:22.029Z,69.53
2019-01-24T01:34:22.024Z,69.42
2019-01-24T01:35:22.031Z,70.15
2019-01-24T01:36:22.001Z,70.15
2019-01-24T01:37:21.987Z,69.11
2019-01-24T01:38:21.976Z,68.90
2019-01-24T01:39:21.966Z,69.32
2019-01-24T01:40:21.978Z,68.79
2019-01-24T01:41:21.942Z,70.47
2019-01-24T01:42:21.942Z,70.15
2019-01-24T01:43:21.921Z,70.33
2019-01-24T01:44:21.920Z,70.37
2019-01-24T01:45:21.933Z,70.12
2019-01-24T01:46:21.893Z,69.32
2019-01-24T01:47:21.880Z,69.53
2019-01-24T01:48:21.865Z,70.47
2019-01-24T01:49:21.859Z,70.68
2019-01-24T01:50:21.865Z,70.57
2019-01-24T01:51:21.835Z,69.84
2019-01-24T01:52:21.822Z,70.78
2019-01-24T01:53:21.815Z,70.89
2019-01-24T01:54:21.801Z,70.15
2019-01-24T01:55:21.817Z,68.90
2019-01-24T01:56:21.781Z,69.11
2019-01-24T01:57:21.770Z,69.32
2019-01-24T01:58:21.762Z,69.32
2019-01-24T01:59:21.759Z,68.59
2019-01-24T02:00:21.767Z,69.00
2019-01-24T02:01:21.727Z,69.21
2019-01-24T02:02:21.716Z,69.53
2019-01-24T02:03:21.713Z,70.47
2019-01-24T02:04:21.696Z,70.37
2019-01-24T02:05:21.706Z,70.26
2019-01-24T02:06:21.672Z,69.74
2019-01-24T02:07:21.661Z,69.21
2019-01-24T02:08:21.653Z,68.79
2019-01-24T02:09:21.643Z,69.00
2019-01-24T02:10:21.653Z,68.79
2019-01-24T02:11:21.618Z,69.00
2019-01-24T02:12:21.606Z,69.74
2019-01-24T02:13:21.595Z,70.37
2019-01-24T02:14:21.588Z,70.26
2019-01-24T02:15:21.600Z,69.95
2019-01-24T02:16:21.562Z,69.95
2019-01-24T02:17:21.567Z,70.68
2019-01-24T02:18:21.543Z,70.47
2019-01-24T02:19:21.531Z,69.42
2019-01-24T02:20:21.545Z,69.63
2019-01-24T02:21:21.523Z,69.29
2019-01-24T02:22:21.499Z,69.74
2019-01-24T02:23:21.489Z,69.11
2019-01-24T02:24:21.476Z,69.53
2019-01-24T02:25:21.484Z,68.66
2019-01-24T02:26:21.454Z,69.84
2019-01-24T02:27:21.443Z,69.74
2019-01-24T02:28:21.441Z,69.74
2019-01-24T02:29:21.422Z,70.05
2019-01-24T02:30:21.432Z,70.26
2019-01-24T02:31:21.399Z,70.05
2019-01-24T02:32:21.390Z,70.37
2019-01-24T02:33:21.381Z,70.47
2019-01-24T02:34:21.368Z,70.15
2019-01-24T02:35:21.389Z,70.89
2019-01-24T02:36:21.348Z,71.41
2019-01-24T02:37:21.335Z,70.05
2019-01-24T02:38:21.327Z,70.37
2019-01-24T02:39:21.315Z,70.15
2019-01-24T02:40:21.310Z,71.51
2019-01-24T02:41:21.313Z,70.47
2019-01-24T02:42:21.281Z,70.47
2019-01-24T02:43:21.269Z,70.37
2019-01-24T02:44:21.260Z,70.15
2019-01-24T02:45:21.249Z,71.31
2019-01-24T02:46:21.258Z,71.73
2019-01-24T02:47:21.228Z,70.78
2019-01-24T02:48:21.215Z,70.37
2019-01-24T02:49:21.208Z,70.47
2019-01-24T02:50:21.193Z,70.15
2019-01-24T02:51:21.206Z,70.68
2019-01-24T02:52:21.171Z,70.37
2019-01-24T02:53:21.159Z,70.37
2019-01-24T02:54:21.170Z,70.37
2019-01-24T02:55:21.141Z,70.05
2019-01-24T02:56:21.151Z,70.37
2019-01-24T02:57:21.119Z,70.26
2019-01-24T02:58:21.109Z,70.08
2019-01-24T02:59:21.095Z,70.08
2019-01-24T03:00:21.085Z,70.37
2019-01-24T03:01:21.095Z,71.73
2019-01-24T03:02:21.074Z,73.19
2019-01-24T03:03:21.057Z,71.41
2019-01-24T03:04:21.040Z,71.66
2019-01-24T03:05:21.030Z,71.97
2019-01-24T03:06:21.039Z,71.44
2019-01-24T03:07:21.008Z,71.44
2019-01-24T03:08:20.997Z,71.10
2019-01-24T03:09:20.990Z,71.94
2019-01-24T03:10:20.975Z,72.07
2019-01-24T03:11:20.986Z,71.41
2019-01-24T03:12:20.954Z,71.62
2019-01-24T03:13:20.945Z,71.44
2019-01-24T03:14:20.931Z,71.23
2019-01-24T03:15:20.923Z,70.99
2019-01-24T03:16:20.930Z,71.76
2019-01-24T03:17:20.936Z,70.57
2019-01-24T03:18:20.888Z,70.47
2019-01-24T03:19:20.879Z,71.13
2019-01-24T03:20:20.886Z,71.86
2019-01-24T03:21:20.878Z,71.97
2019-01-24T03:22:20.844Z,71.44
2019-01-24T03:23:20.835Z,71.23
2019-01-24T03:24:20.824Z,70.61
2019-01-24T03:25:20.818Z,70.61
2019-01-24T03:26:20.825Z,71.44
2019-01-24T03:27:20.792Z,71.34
2019-01-24T03:28:20.779Z,71.86
2019-01-24T03:29:20.769Z,71.48
2019-01-24T03:30:20.759Z,71.37
2019-01-24T03:31:20.769Z,71.06
2019-01-24T03:32:20.739Z,71.16
2019-01-24T03:33:20.729Z,70.64
2019-01-24T03:34:20.718Z,70.53
2019-01-24T03:35:20.707Z,71.34
2019-01-24T03:36:20.714Z,71.79
2019-01-24T03:37:20.684Z,72.21
2019-01-24T03:38:20.671Z,70.95
2019-01-24T03:39:20.661Z,71.37
2019-01-24T03:40:20.651Z,70.22
2019-01-24T03:41:20.659Z,70.81
2019-01-24T03:42:20.629Z,70.43
2019-01-24T03:43:20.632Z,70.64
2019-01-24T03:44:20.606Z,71.26
2019-01-24T03:45:20.600Z,70.53
2019-01-24T03:46:20.607Z,70.85
2019-01-24T03:47:20.573Z,71.37
2019-01-24T03:48:20.563Z,71.89
2019-01-24T03:49:20.551Z,71.26
2019-01-24T03:50:20.541Z,70.53
2019-01-24T03:51:20.555Z,70.81
2019-01-24T03:52:20.522Z,70.43
2019-01-24T03:53:20.507Z,70.32
2019-01-24T03:54:20.498Z,70.85
2019-01-24T03:55:20.486Z,71.48
2019-01-24T03:56:20.497Z,71.16
2019-01-24T03:57:20.467Z,71.26
2019-01-24T03:58:20.454Z,71.26
2019-01-24T03:59:20.456Z,72.84
2019-01-24T04:00:20.437Z,72.94
2019-01-24T04:01:20.442Z,73.15
2019-01-24T04:02:20.414Z,71.37
2019-01-24T04:03:20.404Z,71.48
2019-01-24T04:04:20.391Z,71.41
2019-01-24T04:05:20.379Z,71.37
2019-01-24T04:06:20.398Z,71.58
2019-01-24T04:07:20.357Z,71.41
2019-01-24T04:08:20.346Z,71.79
2019-01-24T04:09:20.335Z,72.03
2019-01-24T04:10:20.323Z,71.89
2019-01-24T04:11:20.388Z,71.48
2019-01-24T04:12:20.302Z,71.37
2019-01-24T04:13:20.292Z,72.14
2019-01-24T04:14:20.280Z,72.63
2019-01-24T04:15:20.299Z,72.03
2019-01-24T04:16:20.280Z,73.05
2019-01-24T04:17:20.251Z,72.98
2019-01-24T04:18:20.237Z,72.87
2019-01-24T04:19:20.230Z,72.84
2019-01-24T04:20:20.218Z,72.31
2019-01-24T04:21:20.226Z,73.50
2019-01-24T04:22:20.197Z,72.42
2019-01-24T04:23:20.184Z,71.79
2019-01-24T04:24:20.171Z,72.00
2019-01-24T04:25:20.162Z,72.00
2019-01-24T04:26:20.170Z,71.26
2019-01-24T04:27:20.138Z,73.36
2019-01-24T04:28:20.128Z,72.52
2019-01-24T04:29:20.117Z,73.08
2019-01-24T04:30:20.105Z,73.08
2019-01-24T04:31:20.119Z,73.29
2019-01-24T04:32:20.087Z,73.36
2019-01-24T04:33:20.073Z,73.36
2019-01-24T04:34:20.065Z,73.15
2019-01-24T04:35:20.387Z,72.45
2019-01-24T04:36:20.062Z,72.98
2019-01-24T04:37:20.034Z,72.11
2019-01-24T04:38:20.022Z,73.29
2019-01-24T04:39:20.008Z,73.08
2019-01-24T04:40:20.005Z,71.93
2019-01-24T04:41:20.011Z,72.24
2019-01-24T04:42:19.975Z,73.50
2019-01-24T04:43:19.966Z,73.08
2019-01-24T04:44:19.957Z,73.50
2019-01-24T04:45:19.944Z,73.82
2019-01-24T04:46:19.933Z,73.19
2019-01-24T04:47:19.943Z,72.45
2019-01-24T04:48:19.911Z,72.56
2019-01-24T04:49:19.905Z,73.36
2019-01-24T04:50:19.900Z,72.34
2019-01-24T04:51:19.883Z,74.24
2019-01-24T04:52:19.893Z,74.73
2019-01-24T04:53:19.856Z,74.30
2019-01-24T04:54:19.848Z,73.57
2019-01-24T04:55:19.835Z,72.52
2019-01-24T04:56:19.823Z,73.15
2019-01-24T04:57:19.838Z,72.34
2019-01-24T04:58:19.802Z,72.94
2019-01-24T04:59:19.794Z,73.08
2019-01-24T05:00:19.779Z,72.66
2019-01-24T05:01:19.769Z,73.89
2019-01-24T05:02:19.821Z,73.36
2019-01-24T05:03:19.750Z,73.50
2019-01-24T05:04:19.737Z,72.42
2019-01-24T05:05:27.167Z,72.87
2019-01-24T05:06:19.716Z,73.19
2019-01-24T05:07:19.728Z,73.57
2019-01-24T05:08:19.693Z,73.92
2019-01-24T05:09:19.682Z,73.57
2019-01-24T05:10:19.673Z,74.83
2019-01-24T05:11:19.660Z,73.61
2019-01-24T05:12:19.674Z,73.15
2019-01-24T05:13:19.647Z,72.94
2019-01-24T05:14:19.627Z,72.21
2019-01-24T05:15:19.624Z,72.87
2019-01-24T05:16:19.605Z,72.24
2019-01-24T05:17:19.626Z,71.51
2019-01-24T05:18:19.584Z,72.42
2019-01-24T05:19:19.574Z,73.19
2019-01-24T05:20:19.561Z,74.13
2019-01-24T05:21:19.552Z,74.87
2019-01-24T05:22:19.563Z,75.49
2019-01-24T05:23:19.530Z,74.97
2019-01-24T05:24:19.522Z,75.70
2019-01-24T05:25:27.836Z,75.81
2019-01-24T05:26:19.497Z,77.07
2019-01-24T05:27:19.511Z,77.28
2019-01-24T05:28:19.477Z,75.81
2019-01-24T05:29:19.470Z,76.02
2019-01-24T05:30:19.477Z,76.65
2019-01-24T05:31:19.444Z,75.81
2019-01-24T05:32:19.460Z,75.92
2019-01-24T05:33:19.421Z,77.17
2019-01-24T05:34:19.408Z,76.86
2019-01-24T05:35:19.405Z,76.75
2019-01-24T05:36:28.661Z,75.81
2019-01-24T05:37:19.400Z,76.05
2019-01-24T05:38:19.368Z,76.79
2019-01-24T05:39:27.849Z,77.52
2019-01-24T05:40:19.349Z,76.68
2019-01-24T05:41:19.332Z,76.37
2019-01-24T05:42:19.343Z,76.16
2019-01-24T05:43:19.313Z,76.16
2019-01-24T05:44:19.301Z,76.37
2019-01-24T05:45:19.310Z,76.43
2019-01-24T05:46:19.278Z,77.10
2019-01-24T05:47:27.878Z,77.21
2019-01-24T05:48:19.255Z,75.32
2019-01-24T05:49:19.245Z,75.63
2019-01-24T05:50:27.799Z,75.21
2019-01-24T05:51:19.224Z,75.74
2019-01-24T05:52:19.950Z,75.74
2019-01-24T05:53:19.202Z,75.49
2019-01-24T05:54:19.193Z,75.29
2019-01-24T05:55:19.178Z,75.32
2019-01-24T05:56:19.170Z,74.87
2019-01-24T05:57:19.203Z,74.76
2019-01-24T05:58:19.146Z,72.66
2019-01-24T05:59:19.137Z,73.11
2019-01-24T06:00:19.127Z,72.28
2019-01-24T06:01:28.423Z,71.65
2019-01-24T06:02:19.137Z,71.93
2019-01-24T06:03:19.094Z,71.96
2019-01-24T06:04:19.082Z,73.39
2019-01-24T06:05:19.075Z,74.76
2019-01-24T06:06:19.059Z,73.50
2019-01-24T06:07:19.268Z,72.03
2019-01-24T06:08:19.404Z,72.24
2019-01-24T06:09:19.031Z,72.06
2019-01-24T06:10:19.018Z,73.08
2019-01-24T06:11:19.004Z,72.69
2019-01-24T06:12:19.018Z,71.75
2019-01-24T06:13:18.985Z,71.33
2019-01-24T06:14:18.971Z,72.06
2019-01-24T06:15:18.963Z,73.22
2019-01-24T06:16:18.949Z,73.43
2019-01-24T06:17:18.965Z,73.33
2019-01-24T06:18:18.930Z,72.24
2019-01-24T06:19:18.916Z,71.30
2019-01-24T06:20:18.911Z,71.01
2019-01-24T06:21:18.894Z,71.51
2019-01-24T06:22:18.910Z,71.51
2019-01-24T06:23:18.878Z,70.67
2019-01-24T06:24:18.863Z,70.46
2019-01-24T06:25:18.852Z,71.72
2019-01-24T06:26:18.841Z,71.41
2019-01-24T06:27:18.851Z,71.54
2019-01-24T06:28:18.822Z,70.39
2019-01-24T06:29:18.806Z,70.28
2019-01-24T06:30:18.799Z,71.44
2019-01-24T06:31:18.787Z,71.33
2019-01-24T06:32:18.809Z,70.50
2019-01-24T06:33:18.763Z,70.81
2019-01-24T06:34:18.761Z,71.65
2019-01-24T06:35:18.745Z,73.22
2019-01-24T06:36:18.733Z,72.24
2019-01-24T06:37:18.741Z,72.66
2019-01-24T06:38:18.709Z,70.98
2019-01-24T06:39:18.697Z,70.56
2019-01-24T06:40:18.690Z,69.45
2019-01-24T06:41:18.676Z,69.76
2019-01-24T06:42:18.696Z,69.97
2019-01-24T06:43:18.661Z,70.50
2019-01-24T06:44:18.644Z,71.96
2019-01-24T06:45:18.633Z,72.49
2019-01-24T06:46:18.622Z,71.30
2019-01-24T06:47:18.634Z,70.46
2019-01-24T06:48:18.607Z,70.50
2019-01-24T06:49:18.591Z,70.07
2019-01-24T06:50:18.579Z,69.55
2019-01-24T06:51:18.566Z,69.97
2019-01-24T06:52:18.576Z,70.39
2019-01-24T06:53:18.548Z,70.60
2019-01-24T06:54:18.534Z,69.86
2019-01-24T06:55:18.523Z,70.39
2019-01-24T06:56:18.512Z,70.39
2019-01-24T06:57:18.523Z,70.07
2019-01-24T06:58:18.490Z,70.36
2019-01-24T06:59:18.479Z,69.45
2019-01-24T07:00:18.468Z,69.02
2019-01-24T07:01:18.458Z,68.71
2019-01-24T07:02:18.470Z,69.31
2019-01-24T07:03:18.470Z,70.50
2019-01-24T07:04:18.424Z,70.60
2019-01-24T07:05:18.414Z,70.56
2019-01-24T07:06:18.405Z,70.39
2019-01-24T07:07:18.414Z,69.45
2019-01-24T07:08:18.383Z,69.02
2019-01-24T07:09:18.372Z,69.93
2019-01-24T07:10:18.364Z,70.36
2019-01-24T07:11:18.349Z,70.91
2019-01-24T07:12:18.359Z,69.86
2019-01-24T07:13:18.327Z,70.60
2019-01-24T07:14:18.338Z,70.39
2019-01-24T07:15:18.307Z,69.34
2019-01-24T07:16:18.302Z,70.39
2019-01-24T07:17:18.282Z,70.60
2019-01-24T07:18:18.297Z,70.15
2019-01-24T07:19:18.263Z,69.55
2019-01-24T07:20:18.260Z,69.65
2019-01-24T07:21:18.245Z,69.83
2019-01-24T07:22:18.231Z,70.28
2019-01-24T07:23:18.245Z,68.40
2019-01-24T07:24:18.210Z,68.29
2019-01-24T07:25:18.196Z,68.60
2019-01-24T07:26:18.188Z,68.29
2019-01-24T07:27:18.174Z,68.60
2019-01-24T07:28:18.238Z,69.34
2019-01-24T07:29:18.152Z,70.39
2019-01-24T07:30:18.150Z,70.07
2019-01-24T07:31:18.133Z,69.86
2019-01-24T07:32:18.229Z,69.55
2019-01-24T07:33:18.131Z,69.45
2019-01-24T07:34:18.098Z,70.18
2019-01-24T07:35:18.125Z,70.18
2019-01-24T07:36:18.078Z,70.60
2019-01-24T07:37:18.067Z,69.86
2019-01-24T07:38:18.079Z,70.60
2019-01-24T07:39:18.044Z,70.18
2019-01-24T07:40:18.033Z,70.39
2019-01-24T07:41:18.028Z,69.97
2019-01-24T07:42:18.014Z,69.83
2019-01-24T07:43:18.102Z,69.62
2019-01-24T07:44:17.992Z,70.25
2019-01-24T07:45:17.980Z,69.52
2019-01-24T07:46:17.967Z,69.93
2019-01-24T07:47:17.956Z,69.73
2019-01-24T07:48:17.980Z,70.46
2019-01-24T07:49:17.936Z,70.25
2019-01-24T07:50:17.926Z,70.04
2019-01-24T07:51:17.922Z,69.93
2019-01-24T07:52:17.901Z,70.11
2019-01-24T07:53:17.913Z,69.73
2019-01-24T07:54:17.883Z,69.73
2019-01-24T07:55:17.874Z,69.52
2019-01-24T07:56:17.864Z,70.25
2019-01-24T07:57:17.851Z,70.36
2019-01-24T07:58:17.877Z,69.10
2019-01-24T07:59:17.827Z,70.04
2019-01-24T08:00:17.834Z,69.41
2019-01-24T08:01:17.804Z,69.62
2019-01-24T08:02:17.794Z,70.25
2019-01-24T08:03:17.811Z,69.59
2019-01-24T08:04:17.770Z,70.78
2019-01-24T08:05:17.767Z,71.48
2019-01-24T08:06:17.752Z,70.22
2019-01-24T08:07:17.741Z,68.85
2019-01-24T08:08:17.748Z,70.22
2019-01-24T08:09:17.719Z,69.41
2019-01-24T08:10:17.706Z,69.48
2019-01-24T08:11:17.716Z,69.48
2019-01-24T08:12:17.683Z,69.90
2019-01-24T08:13:17.695Z,70.64
2019-01-24T08:14:17.662Z,70.43
2019-01-24T08:15:17.656Z,70.53
2019-01-24T08:16:17.640Z,69.90
2019-01-24T08:17:17.628Z,69.27
2019-01-24T08:18:17.639Z,69.59
2019-01-24T08:19:17.610Z,69.38
2019-01-24T08:20:17.597Z,69.27
2019-01-24T08:21:17.585Z,69.52
2019-01-24T08:22:17.574Z,68.85
2019-01-24T08:23:17.585Z,68.89
2019-01-24T08:24:17.552Z,68.99
2019-01-24T08:25:17.549Z,68.75
2019-01-24T08:26:17.533Z,69.59
2019-01-24T08:27:17.519Z,70.01
2019-01-24T08:28:17.529Z,70.22
2019-01-24T08:29:17.505Z,70.53
2019-01-24T08:30:17.488Z,70.32
2019-01-24T08:31:17.477Z,69.90
2019-01-24T08:32:17.467Z,68.85
2019-01-24T08:33:17.475Z,69.38
2019-01-24T08:34:17.442Z,69.14
2019-01-24T08:35:17.432Z,69.38
2019-01-24T08:36:17.425Z,70.53
2019-01-24T08:37:17.410Z,69.70
2019-01-24T08:38:17.422Z,69.38
2019-01-24T08:39:17.388Z,70.11
2019-01-24T08:40:17.376Z,70.50
2019-01-24T08:41:17.367Z,69.98
2019-01-24T08:42:17.358Z,69.87
2019-01-24T08:43:17.365Z,68.62
2019-01-24T08:44:17.342Z,69.04
2019-01-24T08:45:17.328Z,67.99
2019-01-24T08:46:17.311Z,67.25
2019-01-24T08:47:17.307Z,67.57
2019-01-24T08:48:17.315Z,67.78
2019-01-24T08:49:17.283Z,68.62
2019-01-24T08:50:17.267Z,69.56
2019-01-24T08:51:17.262Z,69.45
2019-01-24T08:52:17.246Z,69.14
2019-01-24T08:53:17.258Z,69.56
2019-01-24T08:54:17.224Z,69.45
2019-01-24T08:55:17.216Z,70.18
2019-01-24T08:56:17.203Z,70.08
2019-01-24T08:57:17.191Z,69.04
2019-01-24T08:58:17.212Z,69.45
2019-01-24T08:59:17.169Z,69.67
2019-01-24T09:00:17.163Z,69.67
2019-01-24T09:01:17.150Z,69.24
2019-01-24T09:02:17.137Z,68.72
2019-01-24T09:03:17.146Z,69.45
2019-01-24T09:04:17.114Z,69.24
2019-01-24T09:05:17.103Z,68.72
2019-01-24T09:06:22.519Z,70.08
2019-01-24T09:07:17.084Z,69.35
2019-01-24T09:08:17.107Z,69.04
2019-01-24T09:09:17.066Z,69.70
2019-01-24T09:10:17.051Z,69.45
2019-01-24T09:11:17.063Z,69.07
2019-01-24T09:12:17.027Z,68.93
2019-01-24T09:13:17.019Z,68.93
2019-01-24T09:14:17.025Z,67.91
2019-01-24T09:15:16.995Z,69.38
2019-01-24T09:16:16.988Z,69.80
2019-01-24T09:17:16.975Z,69.38
2019-01-24T09:18:16.961Z,70.71
2019-01-24T09:19:16.973Z,69.87
2019-01-24T09:20:16.943Z,69.35
2019-01-24T09:21:16.947Z,69.77
2019-01-24T09:22:16.921Z,69.87
2019-01-24T09:23:16.907Z,69.14
2019-01-24T09:24:16.921Z,70.40
2019-01-24T09:25:16.885Z,71.55
2019-01-24T09:26:16.874Z,70.40
2019-01-24T09:27:16.865Z,70.18
2019-01-24T09:28:16.852Z,69.67
2019-01-24T09:29:16.863Z,69.77
2019-01-24T09:30:16.834Z,70.40
2019-01-24T09:31:16.819Z,69.77
2019-01-24T09:32:16.809Z,67.88
2019-01-24T09:33:16.797Z,68.93
2019-01-24T09:34:16.811Z,69.38
2019-01-24T09:35:16.775Z,69.35
2019-01-24T09:36:16.764Z,69.70
2019-01-24T09:37:16.753Z,70.40
2019-01-24T09:38:16.743Z,71.34
2019-01-24T09:39:16.755Z,70.40
2019-01-24T09:40:16.720Z,70.29
2019-01-24T09:41:16.716Z,69.98
2019-01-24T09:42:16.699Z,70.50
2019-01-24T09:43:16.688Z,70.61
2019-01-24T09:44:16.698Z,70.08
2019-01-24T09:45:16.670Z,70.08
2019-01-24T09:46:16.658Z,70.29
2019-01-24T09:47:16.649Z,70.29
2019-01-24T09:48:16.634Z,70.92
2019-01-24T09:49:16.644Z,71.20
2019-01-24T09:50:16.629Z,70.15
2019-01-24T09:51:16.601Z,69.84
2019-01-24T09:52:16.592Z,69.95
2019-01-24T09:53:16.614Z,69.63
2019-01-24T09:54:16.592Z,70.47
2019-01-24T09:55:16.593Z,70.26
2019-01-24T09:56:16.547Z,70.05
2019-01-24T09:57:16.537Z,70.05
2019-01-24T09:58:16.525Z,70.26
2019-01-24T09:59:16.536Z,70.47
2019-01-24T10:00:16.505Z,70.47
2019-01-24T10:01:16.492Z,70.47
2019-01-24T10:02:16.492Z,70.47
2019-01-24T10:03:16.471Z,70.37
2019-01-24T10:04:16.497Z,70.89
2019-01-24T10:05:16.469Z,70.33
2019-01-24T10:06:16.440Z,70.23
2019-01-24T10:07:16.428Z,70.33
2019-01-24T10:08:16.415Z,70.02
2019-01-24T10:09:16.426Z,70.20
2019-01-24T10:10:16.398Z,69.92
2019-01-24T10:11:16.387Z,70.33
2019-01-24T10:12:16.372Z,70.23
2019-01-24T10:13:16.361Z,71.41
2019-01-24T10:14:16.373Z,71.20
2019-01-24T10:15:16.339Z,72.25
2019-01-24T10:16:16.328Z,71.41
2019-01-24T10:17:16.319Z,70.89
2019-01-24T10:18:21.591Z,71.20
2019-01-24T10:19:16.325Z,71.20
2019-01-24T10:20:16.287Z,72.35
2019-01-24T10:21:16.274Z,72.14
2019-01-24T10:22:16.268Z,72.04
2019-01-24T10:23:16.253Z,72.25
2019-01-24T10:24:16.266Z,72.01
2019-01-24T10:25:16.232Z,72.98
2019-01-24T10:26:16.221Z,71.48
2019-01-24T10:27:16.212Z,71.41
2019-01-24T10:28:16.198Z,71.83
2019-01-24T10:29:16.208Z,72.56
2019-01-24T10:30:16.177Z,72.88
2019-01-24T10:31:16.166Z,73.40
2019-01-24T10:32:16.154Z,72.56
2019-01-24T10:33:16.154Z,73.19
2019-01-24T10:34:16.161Z,71.83
2019-01-24T10:35:16.122Z,72.04
2019-01-24T10:36:16.112Z,72.35
2019-01-24T10:37:16.100Z,73.09
2019-01-24T10:38:16.090Z,72.04
2019-01-24T10:39:16.107Z,72.35
2019-01-24T10:40:16.067Z,72.04
2019-01-24T10:41:16.059Z,71.31
2019-01-24T10:42:16.048Z,71.73
2019-01-24T10:43:16.034Z,73.19
2019-01-24T10:44:16.044Z,72.98
2019-01-24T10:45:16.013Z,72.77
2019-01-24T10:46:16.004Z,72.77
2019-01-24T10:47:15.991Z,73.30
2019-01-24T10:48:15.979Z,72.77
2019-01-24T10:49:15.992Z,72.14
2019-01-24T10:50:15.958Z,72.77
2019-01-24T10:51:15.951Z,73.50
2019-01-24T10:52:15.939Z,72.77
2019-01-24T10:53:15.926Z,73.30
2019-01-24T10:54:15.941Z,73.50
2019-01-24T10:55:15.903Z,72.77
2019-01-24T10:56:15.895Z,72.88
2019-01-24T10:57:15.882Z,73.40
2019-01-24T10:58:15.870Z,72.56
2019-01-24T10:59:15.904Z,73.30
2019-01-24T11:00:15.848Z,72.25
2019-01-24T11:01:15.839Z,72.88
2019-01-24T11:02:15.826Z,72.98
2019-01-24T11:03:15.815Z,72.25
2019-01-24T11:04:15.804Z,71.73
2019-01-24T11:05:15.826Z,71.62
2019-01-24T11:06:15.781Z,71.31
2019-01-24T11:07:15.770Z,72.25
2019-01-24T11:08:15.772Z,71.41
2019-01-24T11:09:15.749Z,71.23
2019-01-24T11:10:15.762Z,72.14
2019-01-24T11:11:15.728Z,71.73
2019-01-24T11:12:15.717Z,71.86
2019-01-24T11:13:15.708Z,72.98
2019-01-24T11:14:15.695Z,73.09
2019-01-24T11:15:15.707Z,72.25
2019-01-24T11:16:15.678Z,73.09
2019-01-24T11:17:15.661Z,71.51
2019-01-24T11:18:15.651Z,71.20
2019-01-24T11:19:15.640Z,71.62
2019-01-24T11:20:15.650Z,71.83
2019-01-24T11:21:15.621Z,70.37
2019-01-24T11:22:15.608Z,70.47
2019-01-24T11:23:15.599Z,70.37
2019-01-24T11:24:15.585Z,70.47
2019-01-24T11:25:15.597Z,70.26
2019-01-24T11:26:15.571Z,70.26
2019-01-24T11:27:15.553Z,69.63
2019-01-24T11:28:15.542Z,70.26
2019-01-24T11:29:15.532Z,70.47
2019-01-24T11:30:15.542Z,71.03
2019-01-24T11:31:15.516Z,71.34
2019-01-24T11:32:15.499Z,71.23
2019-01-24T11:33:15.490Z,71.51
2019-01-24T11:34:16.005Z,72.56
2019-01-24T11:35:15.487Z,71.23
2019-01-24T11:36:15.454Z,72.25
2019-01-24T11:37:15.443Z,71.20
2019-01-24T11:38:15.435Z,71.41
2019-01-24T11:39:15.421Z,71.83
2019-01-24T11:40:15.433Z,71.66
2019-01-24T11:41:15.404Z,70.99
2019-01-24T11:42:15.390Z,71.62
2019-01-24T11:43:15.378Z,72.35
2019-01-24T11:44:15.366Z,71.83
2019-01-24T11:45:15.380Z,72.14
2019-01-24T11:46:15.349Z,73.09
2019-01-24T11:47:15.334Z,71.51
2019-01-24T11:48:15.324Z,70.99
2019-01-24T11:49:15.315Z,72.14
2019-01-24T11:50:15.324Z,72.14
2019-01-24T11:51:15.293Z,71.83
2019-01-24T11:52:15.280Z,71.31
2019-01-24T11:53:15.270Z,71.41
2019-01-24T11:54:15.261Z,70.26
2019-01-24T11:55:15.268Z,70.26
2019-01-24T11:56:15.236Z,71.41
2019-01-24T11:57:15.226Z,72.14
2019-01-24T11:58:15.215Z,70.37
2019-01-24T11:59:15.206Z,70.57
2019-01-24T12:00:15.222Z,70.26
2019-01-24T12:01:15.181Z,71.62
2019-01-24T12:02:15.171Z,72.88
2019-01-24T12:03:15.161Z,71.62
2019-01-24T12:04:15.149Z,71.83
2019-01-24T12:05:15.160Z,71.69
2019-01-24T12:06:15.128Z,70.78
2019-01-24T12:07:15.119Z,70.33
2019-01-24T12:08:15.106Z,70.47
2019-01-24T12:09:15.097Z,71.48
2019-01-24T12:10:15.105Z,71.83
2019-01-24T12:11:15.076Z,72.98
2019-01-24T12:12:15.062Z,73.61
2019-01-24T12:13:15.052Z,73.50
2019-01-24T12:14:15.042Z,73.72
2019-01-24T12:15:15.065Z,72.67
2019-01-24T12:16:15.018Z,72.67
2019-01-24T12:17:15.007Z,73.09
2019-01-24T12:18:14.999Z,73.30
2019-01-24T12:19:14.985Z,72.67
2019-01-24T12:20:15.001Z,73.30
2019-01-24T12:21:14.963Z,73.40
2019-01-24T12:22:14.952Z,73.19
2019-01-24T12:23:14.946Z,73.09
2019-01-24T12:24:14.935Z,73.30
2019-01-24T12:25:14.944Z,73.19
2019-01-24T12:26:14.937Z,72.35
2019-01-24T12:27:14.898Z,74.03
2019-01-24T12:28:14.887Z,72.46
2019-01-24T12:29:14.879Z,72.14
2019-01-24T12:30:14.886Z,72.14
2019-01-24T12:31:14.853Z,72.98
2019-01-24T12:32:14.842Z,73.22
2019-01-24T12:33:14.837Z,72.35
2019-01-24T12:34:14.820Z,72.88
2019-01-24T12:35:14.829Z,71.83
2019-01-24T12:36:14.802Z,72.67
2019-01-24T12:37:14.795Z,73.50
2019-01-24T12:38:14.797Z,73.72
2019-01-24T12:39:14.765Z,75.11
2019-01-24T12:40:14.781Z,75.11
2019-01-24T12:41:14.795Z,75.21
2019-01-24T12:42:14.738Z,76.37
2019-01-24T12:43:14.723Z,77.62
2019-01-24T12:44:14.711Z,77.83
2019-01-24T12:45:14.723Z,77.10
2019-01-24T12:46:14.690Z,77.10
2019-01-24T12:47:14.679Z,77.42
2019-01-24T12:48:14.669Z,77.52
2019-01-24T12:49:14.657Z,77.10
2019-01-24T12:50:14.669Z,76.86
2019-01-24T12:51:14.636Z,77.10
2019-01-24T12:52:14.624Z,76.96